createdAt,value
2018-10-18T00:00:12.288Z,97091.75
2018-10-18T00:05:08.614Z,97094.00
2018-10-18T00:10:03.045Z,97097.15
2018-10-18T00:14:57.494Z,97098.16
2018-10-18T00:19:51.933Z,97092.25
2018-10-18T00:24:46.377Z,97094.72
2018-10-18T00:29:40.766Z,97099.47
2018-10-18T00:34:35.204Z,97094.72
2018-10-18T00:39:29.629Z,97085.11
2018-10-18T00:44:24.053Z,97081.77
2018-10-18T00:49:18.475Z,97082.47
2018-10-18T00:54:12.949Z,97079.70
2018-10-18T00:59:07.312Z,97085.33
2018-10-18T01:04:01.741Z,97084.84
2018-10-18T01:08:56.173Z,97078.59
2018-10-18T01:13:50.584Z,97085.94
2018-10-18T01:18:45.064Z,97091.55
2018-10-18T01:23:39.522Z,97090.84
2018-10-18T01:28:33.916Z,97079.98
2018-10-18T01:33:28.405Z,97077.95
2018-10-18T01:38:22.877Z,97073.05
2018-10-18T01:43:17.304Z,97073.12
2018-10-18T01:48:11.852Z,97071.73
2018-10-18T01:53:06.876Z,97065.33
2018-10-18T01:58:01.838Z,97065.38
2018-10-18T02:02:56.324Z,97065.94
2018-10-18T02:07:50.795Z,97062.52
2018-10-18T02:12:45.296Z,97070.09
2018-10-18T02:17:39.964Z,97070.95
2018-10-18T02:22:34.420Z,97066.42
2018-10-18T02:27:28.828Z,97063.31
2018-10-18T02:32:23.324Z,97060.31
2018-10-18T02:37:17.754Z,97054.17
2018-10-18T02:42:12.270Z,97057.17
2018-10-18T02:47:06.701Z,97057.24
2018-10-18T02:52:01.140Z,97057.69
2018-10-18T02:56:55.587Z,97064.36
2018-10-18T03:01:50.065Z,97064.09
2018-10-18T03:06:44.472Z,97068.36
2018-10-18T03:11:38.913Z,97069.33
2018-10-18T03:16:33.352Z,97069.82
2018-10-18T03:21:27.780Z,97064.02
2018-10-18T03:26:22.269Z,97073.31
2018-10-18T03:31:16.672Z,97075.94
2018-10-18T03:36:11.101Z,97072.22
2018-10-18T03:41:05.660Z,97070.08
2018-10-18T03:46:00.090Z,97060.26
2018-10-18T03:50:54.504Z,97068.53
2018-10-18T03:55:49.066Z,97067.06
2018-10-18T04:00:43.472Z,97072.14
2018-10-18T04:05:37.934Z,97071.70
2018-10-18T04:10:32.426Z,97070.99
2018-10-18T04:15:26.942Z,97062.67
2018-10-18T04:20:21.412Z,97064.83
2018-10-18T04:25:15.918Z,97066.71
2018-10-18T04:30:10.442Z,97065.92
2018-10-18T04:35:05.572Z,97069.14
2018-10-18T04:39:59.964Z,97073.41
2018-10-18T04:44:54.388Z,97075.69
2018-10-18T04:49:48.800Z,97076.13
2018-10-18T04:54:43.249Z,97070.97
2018-10-18T04:59:37.705Z,97072.30
2018-10-18T05:04:32.170Z,97071.52
2018-10-18T05:09:26.629Z,97070.26
2018-10-18T05:14:21.050Z,97076.13
2018-10-18T05:19:15.580Z,97077.15
2018-10-18T05:24:09.971Z,97079.98
2018-10-18T05:29:04.477Z,97081.90
2018-10-18T05:33:58.893Z,97090.08
2018-10-18T05:38:53.381Z,97099.76
2018-10-18T05:43:47.772Z,97105.21
2018-10-18T05:48:42.344Z,97104.17
2018-10-18T05:53:36.905Z,97113.06
2018-10-18T05:58:31.341Z,97109.31
2018-10-18T06:03:25.976Z,97121.60
2018-10-18T06:08:23.448Z,97122.13
2018-10-18T06:13:18.604Z,97126.84
2018-10-18T06:18:14.096Z,97129.66
2018-10-18T06:23:08.954Z,97132.02
2018-10-18T06:28:05.716Z,97132.86
2018-10-18T06:33:11.882Z,97139.53
2018-10-18T06:38:07.071Z,97141.69
2018-10-18T06:43:02.632Z,97146.77
2018-10-18T06:48:01.651Z,97146.05
2018-10-18T06:52:57.293Z,97156.27
2018-10-18T06:57:53.110Z,97157.47
2018-10-18T07:03:03.681Z,97153.71
2018-10-18T07:07:59.601Z,97150.52
2018-10-18T07:12:55.027Z,97154.80
2018-10-18T07:17:55.180Z,97155.75
2018-10-18T07:22:50.805Z,97157.37
2018-10-18T07:27:47.304Z,97152.63
2018-10-18T07:32:42.927Z,97152.53
2018-10-18T07:37:38.317Z,97154.77
2018-10-18T07:42:33.805Z,97158.73
2018-10-18T07:47:29.751Z,97158.94
2018-10-18T07:52:24.826Z,97152.82
2018-10-18T07:57:19.773Z,97162.33
2018-10-18T08:02:14.458Z,97166.92
2018-10-18T08:07:10.102Z,97166.73
2018-10-18T08:12:05.286Z,97173.78
2018-10-18T08:17:00.881Z,97172.08
2018-10-18T08:21:55.543Z,97175.81
2018-10-18T08:26:50.305Z,97164.97
2018-10-18T08:31:44.992Z,97172.19
2018-10-18T08:36:39.727Z,97173.18
2018-10-18T08:41:34.455Z,97179.19
2018-10-18T08:46:29.385Z,97181.23
2018-10-18T08:51:25.095Z,97185.20
2018-10-18T08:56:21.501Z,97190.39
2018-10-18T09:01:16.890Z,97192.78
2018-10-18T09:06:11.600Z,97181.59
2018-10-18T09:11:06.727Z,97184.34
2018-10-18T09:16:01.377Z,97181.19
2018-10-18T09:20:56.157Z,97176.47
2018-10-18T09:25:50.865Z,97176.84
2018-10-18T09:30:45.624Z,97176.41
2018-10-18T09:35:40.297Z,97172.73
2018-10-18T09:40:34.977Z,97160.28
2018-10-18T09:45:29.987Z,97159.23
2018-10-18T09:50:24.817Z,97155.99
2018-10-18T09:55:19.731Z,97159.59
2018-10-18T10:00:20.093Z,97152.81
2018-10-18T10:05:14.696Z,97150.78
2018-10-18T10:10:09.624Z,97151.05
2018-10-18T10:15:04.350Z,97150.05
2018-10-18T10:19:59.008Z,97143.73
2018-10-18T10:24:54.135Z,97137.09
2018-10-18T10:29:48.840Z,97135.50
2018-10-18T10:34:43.589Z,97126.48
2018-10-18T10:39:38.507Z,97121.70
2018-10-18T10:44:33.226Z,97114.52
2018-10-18T10:49:27.940Z,97112.40
2018-10-18T10:54:23.304Z,97100.16
2018-10-18T10:59:19.165Z,97098.31
2018-10-18T11:04:13.782Z,97093.77
2018-10-18T11:09:10.512Z,97091.66
2018-10-18T11:14:05.940Z,97081.55
2018-10-18T11:19:00.808Z,97079.97
2018-10-18T11:23:55.454Z,97077.56
2018-10-18T11:28:50.045Z,97076.01
2018-10-18T11:33:44.746Z,97073.87
2018-10-18T11:38:39.605Z,97071.22
2018-10-18T11:43:34.444Z,97064.31
2018-10-18T11:48:46.480Z,97068.55
2018-10-18T11:54:01.599Z,97061.91
2018-10-18T11:59:17.079Z,97064.02
2018-10-18T12:04:37.200Z,97052.30
2018-10-18T12:09:53.958Z,97046.88
2018-10-18T12:15:06.022Z,97038.56
2018-10-18T12:20:25.418Z,97033.77
2018-10-18T12:25:20.088Z,97035.33
2018-10-18T12:30:15.436Z,97023.23
2018-10-18T12:35:10.565Z,97019.78
2018-10-18T12:40:07.718Z,97026.41
2018-10-18T12:45:02.465Z,97019.20
2018-10-18T12:49:57.038Z,97018.66
2018-10-18T12:54:52.159Z,97017.08
2018-10-18T12:59:46.876Z,97014.72
2018-10-18T13:04:41.896Z,97017.12
2018-10-18T13:09:36.533Z,97015.45
2018-10-18T13:14:31.817Z,97009.80
2018-10-18T13:19:27.048Z,97008.56
2018-10-18T13:24:22.369Z,97011.19
2018-10-18T13:29:17.025Z,97007.70
2018-10-18T13:34:11.972Z,97004.59
2018-10-18T13:39:12.920Z,96999.94
2018-10-18T13:44:07.976Z,97004.84
2018-10-18T13:49:02.695Z,97014.11
2018-10-18T13:54:00.998Z,97009.09
2018-10-18T13:58:56.042Z,97006.41
2018-10-18T14:03:51.214Z,97006.73
2018-10-18T14:08:51.014Z,97011.53
2018-10-18T14:13:56.774Z,97007.81
2018-10-18T14:19:12.795Z,97010.47
2018-10-18T14:24:07.792Z,97007.55
2018-10-18T14:29:02.630Z,97005.92
2018-10-18T14:33:57.184Z,97004.30
2018-10-18T14:38:51.877Z,97002.50
2018-10-18T14:43:46.628Z,97009.42
2018-10-18T14:48:41.355Z,97011.61
2018-10-18T14:53:36.128Z,97009.48
2018-10-18T14:58:31.401Z,97024.91
2018-10-18T15:03:25.943Z,97027.62
2018-10-18T15:08:20.632Z,97029.52
2018-10-18T15:13:15.281Z,97028.23
2018-10-18T15:18:10.557Z,97021.90
2018-10-18T15:23:05.302Z,97029.69
2018-10-18T15:28:00.739Z,97031.84
2018-10-18T15:32:55.534Z,97034.50
2018-10-18T15:37:50.365Z,97030.00
2018-10-18T15:42:45.028Z,97031.08
2018-10-18T15:47:39.796Z,97028.42
2018-10-18T15:52:34.422Z,97022.84
2018-10-18T15:57:29.045Z,97020.21
2018-10-18T16:02:23.914Z,97020.72
2018-10-18T16:07:18.961Z,97028.12
2018-10-18T16:12:13.972Z,97029.17
2018-10-18T16:17:08.644Z,97032.59
2018-10-18T16:22:03.497Z,97042.86
2018-10-18T16:26:58.124Z,97045.16
2018-10-18T16:31:52.751Z,97056.27
2018-10-18T16:36:47.364Z,97072.84
2018-10-18T16:41:42.389Z,97080.45
2018-10-18T16:46:37.068Z,97080.34
2018-10-18T16:51:31.681Z,97085.89
2018-10-18T16:56:26.341Z,97086.19
2018-10-18T17:01:21.527Z,97086.64
2018-10-18T17:06:16.324Z,97090.30
2018-10-18T17:11:10.913Z,97096.14
2018-10-18T17:16:05.745Z,97107.97
2018-10-18T17:21:00.991Z,97109.27
2018-10-18T17:25:55.638Z,97109.20
2018-10-18T17:30:50.195Z,97113.75
2018-10-18T17:35:44.774Z,97113.50
2018-10-18T17:40:39.634Z,97113.44
2018-10-18T17:45:34.208Z,97121.14
2018-10-18T17:50:28.945Z,97123.00
2018-10-18T17:55:23.674Z,97126.39
2018-10-18T18:00:18.513Z,97128.20
2018-10-18T18:05:13.604Z,97133.58
2018-10-18T18:10:12.747Z,97133.52
2018-10-18T18:15:07.819Z,97138.45
2018-10-18T18:20:02.491Z,97146.45
2018-10-18T18:24:57.093Z,97158.12
2018-10-18T18:29:51.568Z,97165.24
2018-10-18T18:34:46.098Z,97172.55
2018-10-18T18:39:40.529Z,97172.48
2018-10-18T18:44:35.001Z,97170.25
2018-10-18T18:49:29.550Z,97171.45
2018-10-18T18:54:24.185Z,97180.80
2018-10-18T18:59:18.653Z,97187.52
2018-10-18T19:04:13.084Z,97194.42
2018-10-18T19:09:09.052Z,97195.21
2018-10-18T19:14:04.104Z,97199.66
2018-10-18T19:18:58.020Z,97203.58
2018-10-18T19:23:52.495Z,97205.25
2018-10-18T19:28:47.051Z,97207.98
2018-10-18T19:33:41.488Z,97208.17
2018-10-18T19:38:36.199Z,97207.42
2018-10-18T19:43:30.663Z,97215.42
2018-10-18T19:48:25.174Z,97208.81
2018-10-18T19:53:19.637Z,97208.56
2018-10-18T19:58:14.177Z,97215.94
2018-10-18T20:03:08.591Z,97215.87
2018-10-18T20:08:03.145Z,97211.98
2018-10-18T20:12:57.684Z,97207.77
2018-10-18T20:17:52.115Z,97204.48
2018-10-18T20:22:46.590Z,97204.88
2018-10-18T20:27:41.056Z,97201.91
2018-10-18T20:32:35.513Z,97203.52
2018-10-18T20:37:29.964Z,97202.20
2018-10-18T20:42:24.453Z,97201.88
2018-10-18T20:47:19.132Z,97202.55
2018-10-18T20:52:13.475Z,97205.20
2018-10-18T20:57:07.957Z,97208.30
2018-10-18T21:02:02.427Z,97203.52
2018-10-18T21:06:56.861Z,97205.98
2018-10-18T21:11:51.327Z,97204.32
2018-10-18T21:16:45.798Z,97208.12
2018-10-18T21:21:40.695Z,97202.77
2018-10-18T21:26:35.209Z,97201.37
2018-10-18T21:31:29.622Z,97212.34
2018-10-18T21:36:24.109Z,97201.78
2018-10-18T21:41:18.670Z,97206.34
2018-10-18T21:46:13.108Z,97211.03
2018-10-18T21:51:08.629Z,97217.52
2018-10-18T21:56:03.162Z,97211.91
2018-10-18T22:00:57.720Z,97211.38
2018-10-18T22:05:52.263Z,97219.72
2018-10-18T22:10:46.831Z,97220.84
2018-10-18T22:15:41.275Z,97218.27
2018-10-18T22:20:35.728Z,97217.41
2018-10-18T22:25:30.164Z,97213.50
2018-10-18T22:30:24.648Z,97209.73
2018-10-18T22:35:19.180Z,97206.19
2018-10-18T22:40:13.669Z,97204.83
2018-10-18T22:45:09.051Z,97203.61
2018-10-18T22:50:03.526Z,97205.23
2018-10-18T22:54:57.964Z,97211.33
2018-10-18T22:59:52.408Z,97207.83
2018-10-18T23:04:46.860Z,97213.10
2018-10-18T23:09:41.333Z,97213.74
2018-10-18T23:14:35.844Z,97208.91
2018-10-18T23:19:30.472Z,97213.11
2018-10-18T23:24:24.900Z,97208.28
2018-10-18T23:29:19.481Z,97213.86
2018-10-18T23:34:13.969Z,97220.39
2018-10-18T23:39:10.304Z,97220.19
2018-10-18T23:44:04.712Z,97218.45
2018-10-18T23:48:59.160Z,97214.80
2018-10-18T23:53:53.581Z,97210.91
2018-10-18T23:58:48.080Z,97220.42
